Time;durP1;ratioP1;P1;durP2;ratioP2;P2;SDS_P1;SDS_P2;PMS_P1;PMS_P2;Temp;Humidity;BMP_temperature;BMP_pressure;BME280_temperature;BME280_humidity;BME280_pressure;Samples;Min_cycle;Max_cycle;Signal;HPM_P1;HPM_P2
2022/07/12 00:00:47;;;;;;;6.27;5.67;;;19.20;98.80;;;;;;5024702;28;20438;-87
2022/07/12 00:03:14;;;;;;;7.30;5.47;;;19.20;99.10;;;;;;5015226;28;20443;-87
2022/07/12 00:05:42;;;;;;;6.10;5.50;;;19.20;99.20;;;;;;5014003;28;21006;-87
2022/07/12 00:08:08;;;;;;;5.43;4.97;;;19.20;99.30;;;;;;5018364;28;20415;-86
2022/07/12 00:10:35;;;;;;;5.60;4.40;;;19.10;99.90;;;;;;5039530;28;20437;-87
2022/07/12 00:13:02;;;;;;;5.47;4.93;;;19.10;99.90;;;;;;5019386;28;20472;-87
2022/07/12 00:15:29;;;;;;;5.93;4.80;;;19.10;99.90;;;;;;5013459;28;20451;-87
2022/07/12 00:17:56;;;;;;;6.83;4.50;;;19.00;99.90;;;;;;5012593;28;20947;-87
2022/07/12 00:20:22;;;;;;;5.73;5.17;;;19.00;99.90;;;;;;5013915;28;20976;-86
2022/07/12 00:22:50;;;;;;;6.00;4.60;;;19.00;99.90;;;;;;5009723;28;20453;-87
2022/07/12 00:25:17;;;;;;;5.23;4.83;;;18.90;99.90;;;;;;5019625;28;20494;-86
2022/07/12 00:27:44;;;;;;;5.23;4.83;;;18.90;99.90;;;;;;5041573;28;20433;-86
2022/07/12 00:30:11;;;;;;;5.50;5.00;;;18.90;99.90;;;;;;5022570;28;20442;-86
2022/07/12 00:32:38;;;;;;;5.10;4.60;;;18.90;99.90;;;;;;5015184;28;20441;-87
2022/07/12 00:35:06;;;;;;;7.00;5.00;;;18.80;99.90;;;;;;5018075;28;20465;-87
2022/07/12 00:37:34;;;;;;;5.60;5.17;;;18.80;99.90;;;;;;5021789;28;20438;-86
2022/07/12 00:40:04;;;;;;;4.83;4.33;;;18.80;99.90;;;;;;5035767;28;20462;-86
2022/07/12 00:42:30;;;;;;;5.03;4.53;;;18.70;99.90;;;;;;5036412;28;20451;-86
2022/07/12 00:44:57;;;;;;;5.43;4.93;;;18.70;99.90;;;;;;5042209;28;20469;-86
2022/07/12 00:47:36;;;;;;;6.70;4.63;;;18.70;99.90;;;;;;5033897;28;20463;-86
2022/07/12 00:50:04;;;;;;;5.57;4.90;;;18.70;99.90;;;;;;5036551;28;20415;-87
2022/07/12 00:52:31;;;;;;;5.00;4.50;;;18.70;99.90;;;;;;5033593;28;20439;-87
2022/07/12 00:54:57;;;;;;;4.40;3.97;;;18.80;99.90;;;;;;5035238;28;20459;-86
2022/07/12 00:57:26;;;;;;;4.67;4.27;;;18.80;99.90;;;;;;5037413;28;20451;-86
2022/07/12 00:59:52;;;;;;;5.23;4.73;;;18.80;99.90;;;;;;5041463;28;20421;-86
2022/07/12 01:02:19;;;;;;;5.13;4.73;;;18.90;99.90;;;;;;5034687;28;20454;-86
2022/07/12 01:04:47;;;;;;;5.07;4.57;;;18.90;99.90;;;;;;5033397;28;20493;-87
2022/07/12 01:07:15;;;;;;;4.73;4.33;;;18.90;99.90;;;;;;5028500;28;20458;-86
2022/07/12 01:09:41;;;;;;;5.20;4.67;;;18.90;99.90;;;;;;5021973;28;20495;-87
2022/07/12 01:12:09;;;;;;;4.97;4.57;;;18.90;99.90;;;;;;5024428;28;20525;-87
2022/07/12 01:14:39;;;;;;;4.50;4.10;;;18.90;99.90;;;;;;5013151;28;20454;-87
2022/07/12 01:17:07;;;;;;;4.50;4.10;;;19.00;99.90;;;;;;5043322;28;20429;-87
2022/07/12 01:19:35;;;;;;;6.43;4.90;;;18.90;99.90;;;;;;5017381;28;20443;-88
2022/07/12 01:22:02;;;;;;;5.50;4.50;;;18.80;99.90;;;;;;5007877;28;20458;-87
2022/07/12 01:24:31;;;;;;;5.13;4.73;;;18.80;99.90;;;;;;5002711;28;20490;-88
2022/07/12 01:26:58;;;;;;;5.40;4.90;;;18.80;99.90;;;;;;5007619;28;20439;-87
2022/07/12 01:29:26;;;;;;;11.63;6.07;;;18.80;99.90;;;;;;5003848;28;20447;-87
2022/07/12 01:31:52;;;;;;;5.20;4.70;;;18.80;99.90;;;;;;5006008;28;20875;-87
2022/07/12 01:34:21;;;;;;;4.83;4.43;;;18.80;99.90;;;;;;5029439;28;21911;-86
2022/07/12 01:36:49;;;;;;;4.70;4.30;;;18.80;99.90;;;;;;5030493;28;20439;-87
2022/07/12 01:39:15;;;;;;;4.97;4.47;;;18.70;99.90;;;;;;5007712;28;20451;-88
2022/07/12 01:41:44;;;;;;;4.20;3.90;;;18.70;99.90;;;;;;5002892;28;20445;-88
2022/07/12 01:44:10;;;;;;;4.23;3.83;;;18.80;99.90;;;;;;5003296;28;20500;-88
2022/07/12 01:46:38;;;;;;;4.60;4.20;;;18.70;99.90;;;;;;5002369;28;20490;-88
2022/07/12 01:49:05;;;;;;;4.03;3.63;;;18.70;99.90;;;;;;5030324;28;20438;-87
2022/07/12 01:51:33;;;;;;;4.53;3.90;;;18.60;99.90;;;;;;5017700;28;20439;-88
2022/07/12 01:53:59;;;;;;;4.53;4.13;;;18.50;99.90;;;;;;5012194;28;20460;-88
2022/07/12 01:56:26;;;;;;;4.60;4.20;;;18.50;99.90;;;;;;5038030;28;20437;-87
2022/07/12 01:58:54;;;;;;;4.80;4.40;;;18.40;99.90;;;;;;5025599;28;21002;-88
2022/07/12 02:01:21;;;;;;;5.17;4.70;;;18.40;99.90;;;;;;5030602;28;20449;-88
2022/07/12 02:03:48;;;;;;;4.50;4.10;;;18.40;99.90;;;;;;5020183;28;20474;-87
2022/07/12 02:06:15;;;;;;;4.40;4.10;;;18.30;99.90;;;;;;5015056;28;20988;-88
2022/07/12 02:08:42;;;;;;;4.10;3.70;;;18.30;99.90;;;;;;5007672;28;20862;-88
2022/07/12 02:11:09;;;;;;;4.97;3.93;;;18.30;99.90;;;;;;5026363;28;20821;-87
2022/07/12 02:13:36;;;;;;;4.43;4.03;;;18.30;99.90;;;;;;5025422;28;20469;-88
2022/07/12 02:16:04;;;;;;;4.57;4.17;;;18.20;99.90;;;;;;5024929;28;20446;-88
2022/07/12 02:18:33;;;;;;;4.47;4.10;;;18.10;99.90;;;;;;5024791;28;20437;-88
2022/07/12 02:21:00;;;;;;;4.17;3.87;;;18.10;99.90;;;;;;5025573;28;20457;-88
2022/07/12 02:23:26;;;;;;;4.40;4.10;;;18.00;99.90;;;;;;5024990;28;20981;-88
2022/07/12 02:25:53;;;;;;;5.40;4.90;;;18.00;99.90;;;;;;5028859;28;20478;-87
2022/07/12 02:28:20;;;;;;;5.07;4.53;;;18.00;99.90;;;;;;5020861;28;20436;-88
2022/07/12 02:30:47;;;;;;;5.93;4.33;;;18.00;99.90;;;;;;5006691;28;20446;-88
2022/07/12 02:33:15;;;;;;;4.97;4.53;;;18.00;99.90;;;;;;5023292;28;20458;-87
2022/07/12 02:35:42;;;;;;;4.93;4.53;;;17.90;99.90;;;;;;5023917;28;20453;-87
2022/07/12 02:38:09;;;;;;;5.90;4.37;;;17.80;99.90;;;;;;5007275;28;20442;-88
2022/07/12 02:43:19;;;;;;;4.97;4.57;;;17.80;99.90;;;;;;5024369;28;20424;-88
2022/07/12 02:45:46;;;;;;;4.43;4.03;;;17.80;99.90;;;;;;5024468;28;20985;-88
2022/07/12 02:48:14;;;;;;;4.50;4.10;;;17.70;99.90;;;;;;5025521;28;20454;-88
2022/07/12 02:50:41;;;;;;;4.67;3.90;;;17.70;99.90;;;;;;5006363;28;20438;-88
2022/07/12 02:53:09;;;;;;;5.70;5.20;;;17.80;99.90;;;;;;5005466;28;20446;-88
2022/07/12 02:55:36;;;;;;;5.30;4.20;;;17.70;99.90;;;;;;5023853;28;20908;-87
2022/07/12 02:58:02;;;;;;;4.90;4.40;;;17.60;99.90;;;;;;5024081;28;20878;-88
2022/07/12 03:00:30;;;;;;;5.03;4.63;;;17.60;99.90;;;;;;5022596;28;20447;-88
2022/07/12 03:02:57;;;;;;;4.87;4.10;;;17.50;99.90;;;;;;5004679;28;20451;-87
2022/07/12 03:05:25;;;;;;;5.73;5.23;;;17.40;99.90;;;;;;5005611;28;20473;-88
2022/07/12 03:07:52;;;;;;;6.03;5.00;;;17.40;99.90;;;;;;5022798;28;20433;-88
2022/07/12 03:10:18;;;;;;;6.23;5.67;;;17.40;99.90;;;;;;5030026;28;20438;-87
2022/07/12 03:12:45;;;;;;;9.87;6.10;;;17.30;99.90;;;;;;5013651;28;20443;-87
2022/07/12 03:15:12;;;;;;;7.87;5.53;;;17.20;99.90;;;;;;5026844;28;20461;-88
2022/07/12 03:17:39;;;;;;;8.23;6.67;;;17.30;99.90;;;;;;5019286;28;20438;-88
2022/07/12 03:20:08;;;;;;;11.87;8.13;;;17.20;99.90;;;;;;5038938;28;20449;-87
2022/07/12 03:22:36;;;;;;;9.13;7.23;;;17.30;99.90;;;;;;5014592;28;20450;-87
2022/07/12 03:25:03;;;;;;;9.10;8.20;;;17.20;99.90;;;;;;5014720;28;20979;-88
2022/07/12 03:27:31;;;;;;;8.13;7.33;;;17.10;99.90;;;;;;5014789;28;20446;-88
2022/07/12 03:29:57;;;;;;;9.80;7.20;;;17.10;99.90;;;;;;5035010;28;20442;-87
2022/07/12 03:32:25;;;;;;;9.20;8.00;;;17.10;99.90;;;;;;5037067;28;20414;-87
2022/07/12 03:34:51;;;;;;;10.23;7.83;;;17.10;99.90;;;;;;5051041;28;20465;-86
2022/07/12 03:37:18;;;;;;;9.77;7.43;;;17.00;99.90;;;;;;5027877;28;20970;-88
2022/07/12 03:39:46;;;;;;;10.30;8.33;;;17.10;99.90;;;;;;5022106;28;20915;-88
2022/07/12 03:42:13;;;;;;;8.10;7.40;;;17.10;99.90;;;;;;5023546;28;20455;-88
2022/07/12 03:44:39;;;;;;;11.33;8.03;;;17.20;99.90;;;;;;5034054;28;20454;-87
2022/07/12 03:47:06;;;;;;;8.60;7.07;;;17.20;99.90;;;;;;5024693;28;20480;-88
2022/07/12 03:49:33;;;;;;;10.80;9.13;;;17.30;99.90;;;;;;5022361;28;20465;-87
2022/07/12 03:52:00;;;;;;;11.80;8.10;;;17.30;99.90;;;;;;5023079;28;20446;-88
2022/07/12 03:54:26;;;;;;;8.80;7.60;;;17.20;99.90;;;;;;5005236;28;20465;-88
2022/07/12 03:59:39;;;;;;;8.93;8.03;;;17.20;99.90;;;;;;5019248;28;20806;-88
2022/07/12 04:02:05;;;;;;;10.43;9.40;;;17.10;99.90;;;;;;5004858;28;20450;-88
2022/07/12 04:04:32;;;;;;;10.00;8.33;;;17.10;99.90;;;;;;5003394;28;20468;-88
2022/07/12 04:06:59;;;;;;;10.70;9.57;;;17.10;99.90;;;;;;5003101;28;20490;-88
2022/07/12 04:09:26;;;;;;;11.00;8.47;;;17.10;99.90;;;;;;5010839;28;20446;-88
2022/07/12 04:11:54;;;;;;;10.87;9.17;;;17.20;99.90;;;;;;5026914;28;20465;-88
2022/07/12 04:14:21;;;;;;;8.50;7.80;;;17.20;99.90;;;;;;5030873;28;20481;-88
2022/07/12 04:16:47;;;;;;;9.57;8.67;;;17.30;99.90;;;;;;5003396;28;20447;-88
2022/07/12 04:19:16;;;;;;;12.27;8.83;;;17.40;99.90;;;;;;5003064;28;20447;-88
2022/07/12 04:21:43;;;;;;;8.97;8.00;;;17.50;99.90;;;;;;5003373;28;20639;-88
2022/07/12 04:24:09;;;;;;;10.63;7.60;;;17.60;99.90;;;;;;5003353;28;20474;-88
2022/07/12 04:26:36;;;;;;;11.87;8.70;;;17.70;99.90;;;;;;5003417;28;20490;-88
2022/07/12 04:29:04;;;;;;;11.93;9.27;;;17.70;99.90;;;;;;5002701;28;20451;-88
2022/07/12 04:31:31;;;;;;;7.63;6.77;;;17.80;99.90;;;;;;5002969;28;20450;-88
2022/07/12 04:33:57;;;;;;;9.10;8.17;;;17.80;99.90;;;;;;5002992;28;20463;-88
2022/07/12 04:36:24;;;;;;;10.80;8.90;;;17.70;99.90;;;;;;5030318;28;20421;-87
2022/07/12 04:38:50;;;;;;;10.60;8.57;;;17.70;99.90;;;;;;5045794;28;20438;-87
2022/07/12 04:41:17;;;;;;;14.43;8.77;;;17.60;99.90;;;;;;5044721;28;20442;-88
2022/07/12 04:43:44;;;;;;;13.93;9.60;;;17.60;99.90;;;;;;5006354;28;20995;-87
2022/07/12 04:46:12;;;;;;;12.13;8.53;;;17.60;99.90;;;;;;5002201;28;20519;-88
2022/07/12 04:48:39;;;;;;;13.00;9.53;;;17.60;99.90;;;;;;5008487;28;20438;-87
2022/07/12 04:51:05;;;;;;;8.97;7.40;;;17.60;99.90;;;;;;5003262;28;20454;-88
2022/07/12 04:53:32;;;;;;;11.53;8.57;;;17.50;99.90;;;;;;5001522;28;21219;-88
2022/07/12 04:55:59;;;;;;;12.53;8.90;;;17.50;99.90;;;;;;5012133;28;20435;-88
2022/07/12 04:58:25;;;;;;;8.97;8.10;;;17.50;99.90;;;;;;5024663;28;20442;-87
2022/07/12 05:00:52;;;;;;;9.53;8.63;;;17.50;99.90;;;;;;5022133;28;20890;-88
2022/07/12 05:03:20;;;;;;;9.60;8.70;;;17.50;99.90;;;;;;5020668;28;20446;-87
2022/07/12 05:05:47;;;;;;;10.23;9.20;;;17.60;99.90;;;;;;5030330;28;20544;-87
2022/07/12 05:08:13;;;;;;;9.63;8.13;;;17.60;99.90;;;;;;5032157;28;20463;-87
2022/07/12 05:10:40;;;;;;;9.00;8.10;;;17.70;99.90;;;;;;5041404;28;20415;-86
2022/07/12 05:13:07;;;;;;;9.33;8.40;;;17.80;99.90;;;;;;5033135;28;20875;-87
2022/07/12 05:15:34;;;;;;;8.67;7.87;;;17.80;99.90;;;;;;5007964;28;20941;-88
2022/07/12 05:18:00;;;;;;;11.93;8.30;;;17.80;99.90;;;;;;5011067;28;20804;-88
2022/07/12 05:20:28;;;;;;;12.77;8.90;;;18.20;99.90;;;;;;5038705;28;20418;-87
2022/07/12 05:22:55;;;;;;;9.37;7.60;;;18.80;99.90;;;;;;5039350;28;20436;-86
2022/07/12 05:25:22;;;;;;;6.93;6.30;;;19.50;99.90;;;;;;5024785;28;20479;-88
2022/07/12 05:27:48;;;;;;;6.57;5.90;;;20.00;99.90;;;;;;5018671;28;20479;-87
2022/07/12 05:30:15;;;;;;;7.80;6.33;;;20.30;99.90;;;;;;5013385;28;20446;-87
2022/07/12 05:32:42;;;;;;;7.90;7.10;;;20.70;99.90;;;;;;5003930;28;20446;-88
2022/07/12 05:35:09;;;;;;;9.73;7.10;;;21.30;99.90;;;;;;5002405;28;20462;-88
2022/07/12 05:37:37;;;;;;;6.40;5.80;;;21.60;98.00;;;;;;5011620;28;20439;-87
2022/07/12 05:40:04;;;;;;;7.40;6.60;;;22.10;97.40;;;;;;5007392;28;20443;-87
2022/07/12 05:42:31;;;;;;;7.60;5.90;;;22.60;95.70;;;;;;5037534;28;20434;-88
2022/07/12 05:44:57;;;;;;;8.43;5.20;;;23.20;94.40;;;;;;5040635;28;20463;-87
2022/07/12 05:47:24;;;;;;;6.40;5.90;;;23.60;92.70;;;;;;5040064;28;20493;-87
2022/07/12 05:49:51;;;;;;;6.67;5.90;;;24.20;91.10;;;;;;5035905;28;20450;-87
2022/07/12 05:55:03;;;;;;;6.00;5.40;;;25.00;86.10;;;;;;5004325;28;20439;-88
2022/07/12 05:57:30;;;;;;;5.10;4.60;;;25.40;82.40;;;;;;5002007;28;20439;-88
2022/07/12 05:59:57;;;;;;;6.50;5.40;;;25.80;80.70;;;;;;5021011;28;20439;-88
2022/07/12 06:02:24;;;;;;;5.20;4.80;;;26.20;78.70;;;;;;5021069;28;20836;-88
2022/07/12 06:04:51;;;;;;;4.43;4.03;;;26.50;77.20;;;;;;5007616;28;20470;-87
2022/07/12 06:07:18;;;;;;;3.67;3.37;;;27.00;73.60;;;;;;5019819;28;20504;-88
2022/07/12 06:09:45;;;;;;;4.10;3.43;;;27.20;71.10;;;;;;5011637;28;20474;-87
2022/07/12 06:12:13;;;;;;;3.50;3.20;;;27.10;70.30;;;;;;5013581;28;20857;-89
2022/07/12 06:14:39;;;;;;;5.07;3.23;;;27.20;69.60;;;;;;5023052;28;20481;-86
2022/07/12 06:17:08;;;;;;;2.57;2.20;;;27.50;67.80;;;;;;5022517;28;20454;-88
2022/07/12 06:19:37;;;;;;;3.23;2.40;;;27.70;66.30;;;;;;5002151;28;20451;-88
2022/07/12 06:22:04;;;;;;;3.70;2.60;;;28.20;65.00;;;;;;5012976;28;20437;-88
2022/07/12 06:24:31;;;;;;;3.27;2.60;;;28.50;62.70;;;;;;5028805;28;20834;-88
2022/07/12 06:26:57;;;;;;;2.77;2.53;;;28.80;62.00;;;;;;5002493;28;20901;-88
2022/07/12 06:29:25;;;;;;;3.80;2.53;;;28.90;60.30;;;;;;5021114;28;20637;-89
2022/07/12 06:31:52;;;;;;;2.60;2.40;;;28.90;60.90;;;;;;5021698;28;20472;-88
2022/07/12 06:34:19;;;;;;;4.00;2.63;;;29.20;60.00;;;;;;5020072;28;20466;-89
2022/07/12 06:36:45;;;;;;;2.63;2.30;;;28.70;59.00;;;;;;5004473;28;20451;-88
2022/07/12 06:39:12;;;;;;;2.80;2.50;;;29.00;59.20;;;;;;5010385;28;20453;-90
2022/07/12 06:41:38;;;;;;;5.13;2.50;;;28.70;59.10;;;;;;5022671;28;20444;-88
2022/07/12 06:44:05;;;;;;;2.80;2.17;;;29.40;58.90;;;;;;5011314;28;20470;-89
2022/07/12 06:46:33;;;;;;;2.70;2.00;;;29.70;57.30;;;;;;5000034;28;20489;-88
2022/07/12 06:49:00;;;;;;;3.43;2.50;;;30.30;56.40;;;;;;5014337;28;21241;-88
2022/07/12 06:51:27;;;;;;;2.40;2.20;;;30.30;56.40;;;;;;5022480;28;20425;-87
2022/07/12 06:53:53;;;;;;;2.47;2.27;;;30.50;55.40;;;;;;5022249;28;20966;-89
2022/07/12 06:56:20;;;;;;;2.00;1.67;;;30.70;54.40;;;;;;5004547;28;20473;-89
2022/07/12 06:58:47;;;;;;;2.00;1.77;;;30.70;53.80;;;;;;5043357;28;20426;-88
2022/07/12 07:01:15;;;;;;;1.63;1.53;;;31.10;52.90;;;;;;5036043;28;20438;-89
2022/07/12 07:03:43;;;;;;;1.60;1.43;;;31.20;52.30;;;;;;5049420;28;20448;-88
2022/07/12 07:06:09;;;;;;;1.80;1.70;;;31.60;51.70;;;;;;5026114;28;20438;-88
2022/07/12 07:08:36;;;;;;;1.50;1.30;;;31.60;51.70;;;;;;5023066;28;20449;-89
2022/07/12 07:11:03;;;;;;;2.00;1.37;;;31.60;50.90;;;;;;5009593;28;20440;-89
2022/07/12 07:13:29;;;;;;;4.70;1.40;;;31.70;50.10;;;;;;5019011;28;20478;-88
2022/07/12 07:15:56;;;;;;;2.17;1.53;;;31.70;50.70;;;;;;5007164;28;20443;-89
2022/07/12 07:18:23;;;;;;;1.87;1.67;;;31.90;49.80;;;;;;5024824;28;20440;-89
2022/07/12 07:20:53;;;;;;;3.13;1.73;;;31.80;49.60;;;;;;5022800;28;20481;-89
2022/07/12 07:23:20;;;;;;;1.50;1.40;;;31.50;50.40;;;;;;5010672;28;20843;-88
2022/07/12 07:25:47;;;;;;;2.30;1.93;;;31.60;50.40;;;;;;5011220;28;20438;-88
2022/07/12 07:28:14;;;;;;;1.90;1.70;;;31.90;49.50;;;;;;5011169;28;20829;-89
2022/07/12 07:30:55;;;;;;;2.80;1.90;;;32.10;49.20;;;;;;5005907;28;20449;-89
2022/07/12 07:33:22;;;;;;;1.63;1.30;;;31.50;49.10;;;;;;5023684;28;20438;-89
2022/07/12 07:35:53;;;;;;;3.07;1.57;;;31.60;49.00;;;;;;5039716;28;20440;-88
2022/07/12 07:38:20;;;;;;;2.53;2.10;;;32.50;48.50;;;;;;5024724;28;20550;-89
2022/07/12 07:40:47;;;;;;;2.40;1.60;;;31.90;48.40;;;;;;5015803;28;20439;-89
2022/07/12 07:43:14;;;;;;;1.83;1.73;;;30.60;50.70;;;;;;5005254;28;20476;-89
2022/07/12 07:45:41;;;;;;;2.30;1.40;;;31.30;50.30;;;;;;5017752;28;20442;-89
2022/07/12 07:48:08;;;;;;;2.33;2.13;;;32.60;49.00;;;;;;5019142;28;20480;-89
2022/07/12 07:50:35;;;;;;;1.30;1.10;;;33.50;46.90;;;;;;5017207;28;20450;-88
2022/07/12 07:53:03;;;;;;;1.43;0.93;;;34.50;45.30;;;;;;5024962;28;20440;-87
2022/07/12 07:55:29;;;;;;;2.70;1.40;;;34.80;43.00;;;;;;5012276;28;20438;-88
2022/07/12 07:57:59;;;;;;;2.23;1.07;;;34.30;43.20;;;;;;5015404;28;20441;-88
2022/07/12 08:00:29;;;;;;;1.90;1.50;;;32.70;45.20;;;;;;5017437;28;20449;-88
2022/07/12 08:02:56;;;;;;;1.60;1.50;;;32.10;46.70;;;;;;5017204;28;20439;-88
2022/07/12 08:05:23;;;;;;;1.40;1.00;;;32.30;47.10;;;;;;5022230;28;20504;-88
2022/07/12 08:07:51;;;;;;;2.67;1.00;;;33.30;45.70;;;;;;5021414;28;20551;-89
2022/07/12 08:10:19;;;;;;;1.27;0.77;;;34.60;44.50;;;;;;5009349;28;20443;-89
2022/07/12 08:12:46;;;;;;;1.10;0.90;;;35.50;41.60;;;;;;5016189;28;20446;-88
2022/07/12 08:15:13;;;;;;;2.70;1.00;;;36.00;40.40;;;;;;5023145;28;20578;-88
2022/07/12 08:17:39;;;;;;;1.30;0.93;;;35.50;40.20;;;;;;5024677;28;20444;-87
2022/07/12 08:20:07;;;;;;;1.10;0.73;;;34.40;42.00;;;;;;5025182;28;20457;-88
2022/07/12 08:22:33;;;;;;;1.73;0.60;;;34.80;41.60;;;;;;5007258;28;20450;-88
2022/07/12 08:25:00;;;;;;;1.63;0.80;;;34.30;40.80;;;;;;5013948;28;21002;-88
2022/07/12 08:27:29;;;;;;;1.17;0.70;;;33.50;42.30;;;;;;5017454;28;20477;-88
2022/07/12 08:29:55;;;;;;;1.40;0.80;;;33.20;43.10;;;;;;5010288;28;20436;-89
2022/07/12 08:32:22;;;;;;;1.10;0.60;;;34.20;42.40;;;;;;5012861;28;20452;-88
2022/07/12 08:34:49;;;;;;;2.07;0.60;;;35.80;40.10;;;;;;5025535;28;20528;-87
2022/07/12 08:37:15;;;;;;;1.00;0.57;;;35.90;38.00;;;;;;5036592;28;20436;-88
2022/07/12 08:39:42;;;;;;;1.13;0.60;;;36.70;37.30;;;;;;5007555;28;20437;-88
2022/07/12 08:42:09;;;;;;;3.20;1.20;;;37.50;36.80;;;;;;5004928;28;20442;-88
2022/07/12 08:44:37;;;;;;;1.00;0.50;;;37.70;35.90;;;;;;5016885;28;20536;-88
2022/07/12 08:47:04;;;;;;;1.30;0.90;;;36.20;37.70;;;;;;5006148;28;20474;-89
2022/07/12 08:49:34;;;;;;;1.10;0.80;;;36.10;38.40;;;;;;5038676;28;20425;-88
2022/07/12 08:52:02;;;;;;;2.27;0.90;;;36.90;37.10;;;;;;5029739;28;20454;-88
2022/07/12 08:54:39;;;;;;;1.07;0.70;;;36.60;37.30;;;;;;5035049;28;20475;-85
2022/07/12 08:57:06;;;;;;;1.10;0.70;;;36.20;38.10;;;;;;5028207;28;20442;-84
2022/07/12 08:59:33;;;;;;;1.50;0.93;;;36.80;37.00;;;;;;5028683;28;20457;-84
2022/07/12 09:02:01;;;;;;;2.00;0.90;;;37.40;36.90;;;;;;5026248;28;20451;-83
2022/07/12 09:04:28;;;;;;;1.50;0.87;;;37.90;35.80;;;;;;5026260;28;20869;-83
2022/07/12 09:06:55;;;;;;;1.23;0.80;;;38.20;34.70;;;;;;5029504;28;20455;-83
2022/07/12 09:09:28;;;;;;;1.10;0.80;;;37.90;35.00;;;;;;5028834;28;20825;-83
2022/07/12 09:11:56;;;;;;;1.70;1.50;;;36.50;35.30;;;;;;5031397;28;20524;-85
2022/07/12 09:14:23;;;;;;;3.00;0.97;;;35.40;38.00;;;;;;5030389;28;20549;-84
2022/07/12 09:17:03;;;;;;;2.27;1.20;;;36.00;37.70;;;;;;5028609;28;20445;-85
2022/07/12 09:19:29;;;;;;;1.10;0.60;;;36.30;36.80;;;;;;5008891;28;20501;-83
2022/07/12 09:21:56;;;;;;;5.53;1.30;;;35.90;36.90;;;;;;5022595;28;20444;-82
2022/07/12 09:24:26;;;;;;;3.67;1.03;;;35.60;37.60;;;;;;5024025;28;20971;-82
2022/07/12 09:26:57;;;;;;;1.40;1.03;;;36.60;37.30;;;;;;5023722;28;20942;-84
2022/07/12 09:29:25;;;;;;;3.87;1.20;;;37.60;35.30;;;;;;5026319;28;20436;-85
2022/07/12 09:37:26;;;;;;;1.20;0.80;;;34.30;39.10;;;;;;5016221;28;20522;-84
2022/07/12 09:39:54;;;;;;;1.63;1.00;;;35.20;38.40;;;;;;5028338;28;20482;-84
2022/07/12 09:42:21;;;;;;;1.20;0.60;;;35.50;37.60;;;;;;5026280;28;20445;-85
2022/07/12 09:44:48;;;;;;;1.10;0.67;;;35.00;37.80;;;;;;5019865;28;20476;-85
2022/07/12 09:47:15;;;;;;;2.00;0.63;;;36.60;37.20;;;;;;5027996;28;20482;-85
2022/07/12 09:49:44;;;;;;;1.60;1.00;;;36.30;36.40;;;;;;5022987;28;20445;-85
2022/07/12 09:52:13;;;;;;;2.13;0.90;;;35.10;37.90;;;;;;5017560;28;20454;-84
2022/07/12 09:54:42;;;;;;;1.80;0.80;;;34.10;39.20;;;;;;5024030;28;20466;-85
2022/07/12 09:57:20;;;;;;;1.50;0.80;;;32.90;40.30;;;;;;5014504;28;20515;-83
2022/07/12 09:59:48;;;;;;;2.03;1.00;;;32.00;42.50;;;;;;5004760;28;20490;-82
2022/07/12 10:02:16;;;;;;;1.20;0.70;;;32.30;42.30;;;;;;5004549;28;20447;-83
2022/07/12 10:04:46;;;;;;;1.40;0.97;;;30.90;43.80;;;;;;5003934;28;20465;-82
2022/07/12 10:07:15;;;;;;;1.20;0.90;;;29.90;45.70;;;;;;5005223;28;20446;-83
2022/07/12 10:09:43;;;;;;;2.27;0.90;;;31.40;44.80;;;;;;5023835;28;20440;-83
2022/07/12 10:12:11;;;;;;;2.47;1.30;;;33.90;41.80;;;;;;5023176;28;20538;-83
2022/07/12 10:14:39;;;;;;;2.13;1.00;;;36.40;37.90;;;;;;5023741;28;20872;-83
2022/07/12 10:17:09;;;;;;;1.20;0.73;;;37.90;35.50;;;;;;5022142;28;20444;-83
2022/07/12 10:19:36;;;;;;;1.30;0.60;;;38.50;34.20;;;;;;5023330;28;20436;-82
2022/07/12 10:22:07;;;;;;;1.47;0.60;;;38.90;33.00;;;;;;5023296;28;20515;-83
2022/07/12 10:24:53;;;;;;;2.80;0.90;;;39.90;32.10;;;;;;5024126;28;20504;-84
2022/07/12 10:27:32;;;;;;;1.00;0.57;;;41.00;30.90;;;;;;5024398;28;20476;-82
2022/07/12 10:30:23;;;;;;;1.63;0.50;;;41.00;30.70;;;;;;5010518;28;20455;-86
2022/07/12 10:32:53;;;;;;;1.97;0.70;;;41.20;30.00;;;;;;5017546;28;20446;-83
2022/07/12 10:35:21;;;;;;;2.00;1.17;;;41.40;30.00;;;;;;5035952;28;20462;-84
2022/07/12 10:38:21;;;;;;;2.07;0.77;;;41.30;29.80;;;;;;5045626;28;20427;-86
2022/07/12 10:40:49;;;;;;;1.10;0.70;;;41.70;30.00;;;;;;5010319;28;20462;-82
2022/07/12 10:43:22;;;;;;;1.93;0.90;;;40.90;29.90;;;;;;5012985;28;20439;-83
2022/07/12 10:45:50;;;;;;;1.07;0.50;;;39.60;31.40;;;;;;5032004;28;20443;-83
2022/07/12 10:48:22;;;;;;;2.67;0.73;;;40.30;31.00;;;;;;5038033;28;20465;-82
2022/07/12 10:50:58;;;;;;;2.40;0.70;;;40.80;30.20;;;;;;5026844;28;20463;-83
2022/07/12 10:53:29;;;;;;;1.30;0.90;;;41.40;29.90;;;;;;5032973;28;20982;-85
2022/07/12 10:56:10;;;;;;;1.27;0.93;;;40.70;30.20;;;;;;5056057;22;20502;-83
2022/07/12 10:58:38;;;;;;;1.00;0.60;;;41.00;29.80;;;;;;5031448;28;20434;-82
2022/07/12 11:01:07;;;;;;;1.73;0.93;;;39.10;31.10;;;;;;5034703;28;20472;-83
2022/07/12 11:03:40;;;;;;;1.40;0.70;;;37.30;33.30;;;;;;5041058;28;20448;-83
2022/07/12 11:06:08;;;;;;;1.63;0.70;;;36.20;35.50;;;;;;5038080;28;20857;-83
2022/07/12 11:08:52;;;;;;;2.13;0.77;;;37.30;34.70;;;;;;5031624;28;20480;-82
2022/07/12 11:11:24;;;;;;;3.00;1.03;;;38.10;32.90;;;;;;5034252;28;20443;-85
2022/07/12 11:13:51;;;;;;;1.63;0.70;;;38.90;32.60;;;;;;5039087;28;20487;-83
2022/07/12 11:16:18;;;;;;;1.20;0.87;;;39.30;31.60;;;;;;5039017;28;20506;-84
2022/07/12 11:18:45;;;;;;;3.57;0.90;;;39.50;31.00;;;;;;5042010;28;20457;-83
2022/07/12 11:21:12;;;;;;;2.17;0.90;;;39.70;31.30;;;;;;5042126;28;20453;-84
2022/07/12 11:23:41;;;;;;;3.30;0.67;;;40.30;30.60;;;;;;5042448;28;20482;-83
2022/07/12 11:26:11;;;;;;;1.70;0.70;;;40.30;30.10;;;;;;5045094;28;20511;-84
2022/07/12 11:28:39;;;;;;;1.20;0.60;;;39.20;31.30;;;;;;5048402;28;21067;-84
2022/07/12 11:31:07;;;;;;;1.30;0.60;;;38.50;32.10;;;;;;5044282;28;20459;-82
2022/07/12 11:33:36;;;;;;;1.30;0.60;;;36.60;34.00;;;;;;5042857;28;20447;-84
2022/07/12 11:36:05;;;;;;;1.70;0.70;;;37.20;34.10;;;;;;5041811;28;20531;-84
2022/07/12 11:38:32;;;;;;;2.23;0.63;;;37.50;33.40;;;;;;5042186;28;20515;-83
2022/07/12 11:41:00;;;;;;;1.03;0.63;;;38.40;32.90;;;;;;5043762;28;20452;-83
2022/07/12 11:43:29;;;;;;;2.27;0.70;;;39.50;30.80;;;;;;5043840;28;20490;-84
2022/07/12 11:45:57;;;;;;;1.00;0.60;;;40.50;30.10;;;;;;5042748;28;20513;-83
2022/07/12 11:48:25;;;;;;;1.57;0.70;;;40.30;30.20;;;;;;5043225;28;20508;-83
2022/07/12 11:50:52;;;;;;;2.43;0.70;;;41.70;29.80;;;;;;5041845;28;20453;-83
2022/07/12 11:53:21;;;;;;;1.40;0.90;;;40.70;29.30;;;;;;5041900;28;20450;-83
2022/07/12 11:55:50;;;;;;;1.20;0.97;;;41.20;29.70;;;;;;5043358;28;20484;-83
2022/07/12 11:58:18;;;;;;;1.93;0.70;;;40.30;29.40;;;;;;5044669;28;20445;-84
2022/07/12 12:00:47;;;;;;;1.10;0.70;;;41.30;29.90;;;;;;5044029;28;20446;-84
2022/07/12 12:03:16;;;;;;;1.00;0.53;;;41.70;28.50;;;;;;5043861;28;20461;-84
2022/07/12 12:05:43;;;;;;;1.30;0.60;;;41.00;28.00;;;;;;5042072;28;20473;-83
2022/07/12 12:08:12;;;;;;;1.10;0.60;;;39.10;29.20;;;;;;5041017;28;20543;-82
2022/07/12 12:10:40;;;;;;;1.53;0.70;;;37.80;30.90;;;;;;5045534;28;20495;-84
2022/07/12 12:13:13;;;;;;;1.10;0.50;;;37.60;31.20;;;;;;5051991;28;20435;-82
2022/07/12 12:15:40;;;;;;;1.10;0.63;;;36.90;31.60;;;;;;5046319;28;20472;-84
2022/07/12 12:18:09;;;;;;;1.00;0.70;;;36.90;32.80;;;;;;5040497;28;20950;-84
2022/07/12 12:20:39;;;;;;;1.30;0.80;;;37.90;31.80;;;;;;5050394;28;20449;-82
2022/07/12 12:23:07;;;;;;;0.90;0.60;;;38.60;30.90;;;;;;5042482;28;20460;-83
2022/07/12 12:25:34;;;;;;;1.27;0.60;;;39.60;30.20;;;;;;5044368;28;20499;-83
2022/07/12 12:28:03;;;;;;;1.57;0.60;;;39.10;30.60;;;;;;5041879;28;20498;-83
2022/07/12 12:30:31;;;;;;;1.17;0.63;;;39.50;30.20;;;;;;5038984;28;20452;-83
2022/07/12 12:33:00;;;;;;;1.67;0.80;;;39.60;30.00;;;;;;5039556;28;20446;-83
2022/07/12 12:35:33;;;;;;;1.70;0.80;;;40.70;29.40;;;;;;5038573;28;20856;-83
2022/07/12 12:38:01;;;;;;;1.10;0.90;;;40.80;29.30;;;;;;5038439;28;20458;-83
2022/07/12 12:40:30;;;;;;;1.27;0.80;;;41.20;29.00;;;;;;5037925;28;20465;-84
2022/07/12 12:43:07;;;;;;;1.70;0.57;;;41.30;28.40;;;;;;5038494;28;20522;-83
2022/07/12 12:45:34;;;;;;;1.47;0.97;;;41.50;28.10;;;;;;5037072;28;20465;-83
2022/07/12 12:48:02;;;;;;;1.10;0.60;;;42.40;27.60;;;;;;5029436;28;20436;-83
2022/07/12 12:50:44;;;;;;;0.97;0.63;;;42.10;27.50;;;;;;5031735;28;20443;-81
2022/07/12 12:53:13;;;;;;;1.07;0.53;;;42.20;27.80;;;;;;5027075;28;20455;-81
2022/07/12 12:55:41;;;;;;;1.40;0.70;;;43.50;26.90;;;;;;5031516;28;20502;-82
2022/07/12 12:58:08;;;;;;;1.63;1.00;;;43.10;26.60;;;;;;5019321;28;20443;-82
2022/07/12 13:00:39;;;;;;;2.20;1.00;;;43.40;26.80;;;;;;5015100;28;20850;-82
2022/07/12 13:03:06;;;;;;;3.20;2.90;;;43.40;26.70;;;;;;5025378;28;20471;-83